createdAt,value
2018-07-04T00:00:53.843Z,2.10
2018-07-04T00:03:33.349Z,2.63
2018-07-04T00:06:12.941Z,2.30
2018-07-04T00:08:52.659Z,2.10
2018-07-04T00:11:32.245Z,2.40
2018-07-04T00:14:11.869Z,2.33
2018-07-04T00:16:51.507Z,2.30
2018-07-04T00:19:31.127Z,2.23
2018-07-04T00:22:10.943Z,2.37
2018-07-04T00:24:50.616Z,2.53
2018-07-04T00:27:30.235Z,2.43
2018-07-04T00:30:09.869Z,2.73
2018-07-04T00:32:49.506Z,2.10
2018-07-04T00:35:29.120Z,2.47
2018-07-04T00:38:08.721Z,2.40
2018-07-04T00:40:48.420Z,2.17
2018-07-04T00:43:27.929Z,2.40
2018-07-04T00:46:07.591Z,2.27
2018-07-04T00:48:47.358Z,2.67
2018-07-04T00:51:27.058Z,2.20
2018-07-04T00:54:06.678Z,2.47
2018-07-04T00:56:46.280Z,2.13
2018-07-04T00:59:25.947Z,2.47
2018-07-04T01:02:05.583Z,2.40
2018-07-04T01:04:45.123Z,2.67
2018-07-04T01:07:24.826Z,2.90
2018-07-04T01:10:04.447Z,2.10
2018-07-04T01:12:44.031Z,2.87
2018-07-04T01:15:23.721Z,2.77
2018-07-04T01:18:03.296Z,2.40
2018-07-04T01:20:48.260Z,2.10
2018-07-04T01:23:27.898Z,2.00
2018-07-04T01:26:07.536Z,2.20
2018-07-04T01:28:48.203Z,2.20
2018-07-04T01:31:27.775Z,2.80
2018-07-04T01:34:07.950Z,3.20
2018-07-04T01:36:47.848Z,2.77
2018-07-04T01:39:27.474Z,2.40
2018-07-04T01:42:07.157Z,2.67
2018-07-04T01:44:46.633Z,2.47
2018-07-04T01:47:26.710Z,2.47
2018-07-04T01:50:06.235Z,2.67
2018-07-04T01:52:45.881Z,2.67
2018-07-04T01:55:25.377Z,2.73
2018-07-04T01:58:04.856Z,2.80
2018-07-04T02:00:44.258Z,2.43
2018-07-04T02:03:23.733Z,2.80
2018-07-04T02:06:03.366Z,2.70
2018-07-04T02:08:42.914Z,3.23
2018-07-04T02:11:22.490Z,3.07
2018-07-04T02:14:02.092Z,2.97
2018-07-04T02:16:41.578Z,3.67
2018-07-04T02:19:21.221Z,3.07
2018-07-04T02:22:01.308Z,3.10
2018-07-04T02:24:41.057Z,3.00
2018-07-04T02:27:20.795Z,3.03
2018-07-04T02:30:00.473Z,3.20
2018-07-04T02:32:40.126Z,3.30
2018-07-04T02:35:19.720Z,3.27
2018-07-04T02:37:59.260Z,2.80
2018-07-04T02:40:38.901Z,3.10
2018-07-04T02:43:18.486Z,3.10
2018-07-04T02:45:58.245Z,3.50
2018-07-04T02:48:37.857Z,3.77
2018-07-04T02:51:17.513Z,3.47
2018-07-04T02:53:57.191Z,3.07
2018-07-04T02:56:36.782Z,3.17
2018-07-04T02:59:16.424Z,3.23
2018-07-04T03:01:56.010Z,3.33
2018-07-04T03:04:35.729Z,3.47
2018-07-04T03:07:15.377Z,3.47
2018-07-04T03:09:55.056Z,3.83
2018-07-04T03:12:34.690Z,3.67
2018-07-04T03:15:14.331Z,4.50
2018-07-04T03:17:53.965Z,4.20
2018-07-04T03:20:33.490Z,4.20
2018-07-04T03:23:13.168Z,4.00
2018-07-04T03:25:52.690Z,3.90
2018-07-04T03:28:32.301Z,4.97
2018-07-04T03:31:11.870Z,3.70
2018-07-04T03:33:51.471Z,4.00
2018-07-04T03:36:31.030Z,4.73
2018-07-04T03:39:10.862Z,4.23
2018-07-04T03:41:50.410Z,4.00
2018-07-04T03:44:30.333Z,3.83
2018-07-04T03:47:10.049Z,3.50
2018-07-04T03:49:49.597Z,3.27
2018-07-04T03:52:29.285Z,3.87
2018-07-04T03:55:09.337Z,3.90
2018-07-04T03:57:48.880Z,3.63
2018-07-04T04:00:28.403Z,3.90
2018-07-04T04:03:07.945Z,3.40
2018-07-04T04:05:47.581Z,3.50
2018-07-04T04:08:27.454Z,3.80
2018-07-04T04:11:07.077Z,3.97
2018-07-04T04:13:46.605Z,4.00
2018-07-04T04:16:26.186Z,3.70
2018-07-04T04:19:05.832Z,4.00
2018-07-04T04:21:45.364Z,3.97
2018-07-04T04:24:25.093Z,3.90
2018-07-04T04:27:04.775Z,3.97
2018-07-04T04:29:44.374Z,3.87
2018-07-04T04:32:23.981Z,3.50
2018-07-04T04:35:03.639Z,3.67
2018-07-04T04:37:43.274Z,4.00
2018-07-04T04:40:22.915Z,3.87
2018-07-04T04:43:02.545Z,3.90
2018-07-04T04:45:42.224Z,3.97
2018-07-04T04:48:21.895Z,4.70
2018-07-04T04:51:01.497Z,4.33
2018-07-04T04:53:41.142Z,4.83
2018-07-04T04:56:20.758Z,4.80
2018-07-04T04:59:00.434Z,4.60
2018-07-04T05:01:40.169Z,4.97
2018-07-04T05:04:19.766Z,4.33
2018-07-04T05:06:59.345Z,4.63
2018-07-04T05:09:38.907Z,4.33
2018-07-04T05:12:18.550Z,3.93
2018-07-04T05:14:58.371Z,4.33
2018-07-04T05:17:38.035Z,4.33
2018-07-04T05:20:17.680Z,3.80
2018-07-04T05:22:57.339Z,3.80
2018-07-04T05:25:36.980Z,3.53
2018-07-04T05:28:16.652Z,3.73
2018-07-04T05:30:56.269Z,3.67
2018-07-04T05:33:35.781Z,3.90
2018-07-04T05:36:15.400Z,3.97
2018-07-04T05:38:54.965Z,3.97
2018-07-04T05:41:34.711Z,3.93
2018-07-04T05:44:14.299Z,4.20
2018-07-04T05:46:53.865Z,4.23
2018-07-04T05:49:33.508Z,3.40
2018-07-04T05:52:13.189Z,3.60
2018-07-04T05:54:52.834Z,3.40
2018-07-04T05:57:32.835Z,3.67
2018-07-04T06:00:12.337Z,3.60
2018-07-04T06:02:51.899Z,3.57
2018-07-04T06:05:31.493Z,3.17
2018-07-04T06:08:11.366Z,2.95
2018-07-04T06:10:51.004Z,2.67
2018-07-04T06:13:31.883Z,2.83
2018-07-04T06:16:11.695Z,2.70
2018-07-04T06:18:51.237Z,2.40
2018-07-04T06:21:30.913Z,3.00
2018-07-04T06:24:10.563Z,2.52
2018-07-04T06:26:50.302Z,2.65
2018-07-04T06:29:29.879Z,2.62
2018-07-04T06:32:09.417Z,2.55
2018-07-04T06:34:49.112Z,3.20
2018-07-04T06:37:28.799Z,2.00
2018-07-04T06:39:56.060Z,2.20
2018-07-04T06:42:23.328Z,2.52
2018-07-04T06:44:50.592Z,2.50
2018-07-04T06:47:17.847Z,2.40
2018-07-04T06:49:45.065Z,2.70
2018-07-04T06:52:12.314Z,2.62
2018-07-04T06:54:39.568Z,2.40
2018-07-04T06:57:06.876Z,2.25
2018-07-04T06:59:34.157Z,2.65
2018-07-04T07:02:23.444Z,2.55
2018-07-04T07:05:03.688Z,3.03
2018-07-04T07:07:43.264Z,2.77
2018-07-04T07:10:23.211Z,2.27
2018-07-04T07:13:03.060Z,2.93
2018-07-04T07:15:43.842Z,2.73
2018-07-04T07:18:23.866Z,2.53
2018-07-04T07:21:03.612Z,2.33
2018-07-04T07:23:43.345Z,2.40
2018-07-04T07:26:22.985Z,2.53
2018-07-04T07:29:02.697Z,1.83
2018-07-04T07:31:42.276Z,2.23
2018-07-04T07:34:21.912Z,2.60
2018-07-04T07:37:02.333Z,1.92
2018-07-04T07:39:41.962Z,2.65
2018-07-04T07:42:21.713Z,2.33
2018-07-04T07:45:01.336Z,2.30
2018-07-04T07:47:40.970Z,2.40
2018-07-04T07:50:20.663Z,2.87
2018-07-04T07:53:00.232Z,2.55
2018-07-04T07:55:39.723Z,2.20
2018-07-04T07:58:19.335Z,2.25
2018-07-04T08:00:59.102Z,2.00
2018-07-04T08:03:38.609Z,2.22
2018-07-04T08:06:18.137Z,2.12
2018-07-04T08:08:57.594Z,1.80
2018-07-04T08:11:37.257Z,2.47
2018-07-04T08:14:16.960Z,2.62
2018-07-04T08:16:56.573Z,3.15
2018-07-04T08:19:36.158Z,2.52
2018-07-04T08:22:15.797Z,1.82
2018-07-04T08:24:55.409Z,2.47
2018-07-04T08:27:35.003Z,2.15
2018-07-04T08:30:14.497Z,2.27
2018-07-04T08:32:54.105Z,2.05
2018-07-04T08:35:33.746Z,2.45
2018-07-04T08:38:13.415Z,2.50
2018-07-04T08:40:53.108Z,1.80
2018-07-04T08:43:32.610Z,2.10
2018-07-04T08:46:12.159Z,2.00
2018-07-04T08:48:51.756Z,1.90
2018-07-04T08:51:31.336Z,1.80
2018-07-04T08:54:10.880Z,2.10
2018-07-04T08:56:50.549Z,2.40
2018-07-04T08:59:30.232Z,2.00
2018-07-04T09:02:09.845Z,1.80
2018-07-04T09:04:49.417Z,2.10
2018-07-04T09:07:29.034Z,2.15
2018-07-04T09:10:08.520Z,1.95
2018-07-04T09:12:48.163Z,2.37
2018-07-04T09:15:27.663Z,1.98
2018-07-04T09:18:07.351Z,2.10
2018-07-04T09:20:46.770Z,2.25
2018-07-04T09:23:26.405Z,2.15
2018-07-04T09:26:06.038Z,2.00
2018-07-04T09:28:45.598Z,1.90
2018-07-04T09:31:25.298Z,2.22
2018-07-04T09:34:04.800Z,1.82
2018-07-04T09:36:44.538Z,2.40
2018-07-04T09:39:24.112Z,2.15
2018-07-04T09:42:03.668Z,2.20
2018-07-04T09:44:43.399Z,1.75
2018-07-04T09:47:22.959Z,2.25
2018-07-04T09:50:02.611Z,2.20
2018-07-04T09:52:42.189Z,1.87
2018-07-04T09:55:21.735Z,2.40
2018-07-04T09:58:01.418Z,2.10
2018-07-04T10:00:46.341Z,1.70
2018-07-04T10:03:26.097Z,2.27
2018-07-04T10:06:05.926Z,1.92
2018-07-04T10:08:45.525Z,2.25
2018-07-04T10:11:25.093Z,1.77
2018-07-04T10:14:04.751Z,1.60
2018-07-04T10:16:44.376Z,1.75
2018-07-04T10:19:23.961Z,1.50
2018-07-04T10:22:03.600Z,1.70
2018-07-04T10:24:43.497Z,1.60
2018-07-04T10:27:23.295Z,1.42
2018-07-04T10:30:03.040Z,1.35
2018-07-04T10:32:42.701Z,1.52
2018-07-04T10:35:22.379Z,1.55
2018-07-04T10:38:01.840Z,1.80
2018-07-04T10:40:41.385Z,1.50
2018-07-04T10:43:21.017Z,1.47
2018-07-04T10:46:00.584Z,1.50
2018-07-04T10:48:40.164Z,1.52
2018-07-04T10:51:19.925Z,1.17
2018-07-04T10:53:59.410Z,1.42
2018-07-04T10:56:39.026Z,1.72
2018-07-04T10:59:18.779Z,1.20
2018-07-04T11:01:58.368Z,1.30
2018-07-04T11:04:38.097Z,1.67
2018-07-04T11:07:17.486Z,1.62
2018-07-04T11:09:57.010Z,1.72
2018-07-04T11:12:36.643Z,1.40
2018-07-04T11:15:16.269Z,1.42
2018-07-04T11:17:55.882Z,1.60
2018-07-04T11:20:35.810Z,1.70
2018-07-04T11:23:15.388Z,1.67
2018-07-04T11:25:55.196Z,1.92
2018-07-04T11:28:34.747Z,1.75
2018-07-04T11:31:14.229Z,1.80
2018-07-04T11:33:53.691Z,1.77
2018-07-04T11:36:33.265Z,1.85
2018-07-04T11:39:12.903Z,2.00
2018-07-04T11:41:52.967Z,2.17
2018-07-04T11:44:32.737Z,1.80
2018-07-04T11:46:59.996Z,2.27
2018-07-04T11:49:27.259Z,2.40
2018-07-04T11:51:54.501Z,2.05
2018-07-04T11:54:21.785Z,2.30
2018-07-04T11:56:49.032Z,2.47
2018-07-04T11:59:16.282Z,2.40
2018-07-04T12:01:43.589Z,2.33
2018-07-04T12:04:23.135Z,2.35
2018-07-04T12:07:04.946Z,2.30
2018-07-04T12:09:32.246Z,2.50
2018-07-04T12:12:00.151Z,2.37
2018-07-04T12:14:27.506Z,2.27
2018-07-04T12:16:54.776Z,2.83
2018-07-04T12:19:22.036Z,2.58
2018-07-04T12:21:49.353Z,1.90
2018-07-04T12:24:16.609Z,1.90
2018-07-04T12:26:43.985Z,1.82
2018-07-04T12:29:11.476Z,1.80
2018-07-04T12:31:39.206Z,2.17
2018-07-04T12:34:06.467Z,2.22
2018-07-04T12:36:34.225Z,1.90
2018-07-04T12:39:01.463Z,2.15
2018-07-04T12:41:29.041Z,1.98
2018-07-04T12:43:56.335Z,2.27
2018-07-04T12:46:23.561Z,2.12
2018-07-04T12:48:50.795Z,1.62
2018-07-04T12:51:18.028Z,2.10
2018-07-04T12:53:45.249Z,2.10
2018-07-04T12:56:24.736Z,1.80
2018-07-04T12:59:04.391Z,2.30
2018-07-04T13:01:44.069Z,2.05
2018-07-04T13:04:23.626Z,1.67
2018-07-04T13:07:03.333Z,2.00
2018-07-04T13:09:42.855Z,2.08
2018-07-04T13:12:22.346Z,1.95
2018-07-04T13:15:01.999Z,1.95
2018-07-04T13:17:41.431Z,1.92
2018-07-04T13:20:21.064Z,1.80
2018-07-04T13:23:00.783Z,1.90
2018-07-04T13:25:40.425Z,2.20
2018-07-04T13:28:20.020Z,2.00
2018-07-04T13:30:59.701Z,2.08
2018-07-04T13:33:39.240Z,2.08
2018-07-04T13:36:18.869Z,2.10
2018-07-04T13:38:58.551Z,1.90
2018-07-04T13:41:38.286Z,2.10
2018-07-04T13:44:18.073Z,2.15
2018-07-04T13:46:57.677Z,1.98
2018-07-04T13:49:37.201Z,1.98
2018-07-04T13:52:16.870Z,1.85
2018-07-04T13:54:56.472Z,1.85
2018-07-04T13:57:36.175Z,2.15
2018-07-04T14:00:15.818Z,1.90
2018-07-04T14:02:55.437Z,1.77
2018-07-04T14:05:35.072Z,2.10
2018-07-04T14:08:14.825Z,1.87
2018-07-04T14:10:54.279Z,1.82
2018-07-04T14:13:33.957Z,1.60
2018-07-04T14:16:13.535Z,1.75
2018-07-04T14:18:53.190Z,2.10
2018-07-04T14:21:32.846Z,2.33
2018-07-04T14:24:12.394Z,1.82
2018-07-04T14:26:52.109Z,2.15
2018-07-04T14:29:31.562Z,2.30
2018-07-04T14:32:11.226Z,1.85
2018-07-04T14:34:50.854Z,1.92
2018-07-04T14:37:30.442Z,2.02
2018-07-04T14:40:10.355Z,1.70
2018-07-04T14:42:50.007Z,1.72
2018-07-04T14:45:30.113Z,1.80
2018-07-04T14:48:09.793Z,2.20
2018-07-04T14:50:49.433Z,2.00
2018-07-04T14:53:29.101Z,2.00
2018-07-04T14:56:08.701Z,2.47
2018-07-04T14:58:48.368Z,2.00
2018-07-04T15:01:27.792Z,2.17
2018-07-04T15:04:07.426Z,2.00
2018-07-04T15:06:46.944Z,2.10
2018-07-04T15:09:26.578Z,2.08
2018-07-04T15:12:06.178Z,1.85
2018-07-04T15:14:45.696Z,1.98
2018-07-04T15:17:25.350Z,2.02
2018-07-04T15:20:05.008Z,2.12
2018-07-04T15:22:44.794Z,1.98
2018-07-04T15:25:24.443Z,2.42
2018-07-04T15:28:04.062Z,2.08
2018-07-04T15:30:43.695Z,1.80
2018-07-04T15:33:23.247Z,1.85
2018-07-04T15:36:03.523Z,1.87
2018-07-04T15:38:43.118Z,1.90
2018-07-04T15:41:22.666Z,1.82
2018-07-04T15:44:02.279Z,1.80
2018-07-04T15:46:41.942Z,2.17
2018-07-04T15:49:21.611Z,2.33
2018-07-04T15:52:01.185Z,2.15
2018-07-04T15:54:40.928Z,2.00
2018-07-04T15:57:20.598Z,1.82
2018-07-04T16:00:00.148Z,1.92
2018-07-04T16:02:39.762Z,2.30
2018-07-04T16:05:19.463Z,1.85
2018-07-04T16:07:59.035Z,1.82
2018-07-04T16:10:38.799Z,1.82
2018-07-04T16:13:18.422Z,2.10
2018-07-04T16:15:58.091Z,2.35
2018-07-04T16:18:37.609Z,2.35
2018-07-04T16:21:17.222Z,1.98
2018-07-04T16:23:56.901Z,1.80
2018-07-04T16:26:36.498Z,2.08
2018-07-04T16:29:16.060Z,1.82
2018-07-04T16:31:55.663Z,1.85
2018-07-04T16:34:35.342Z,1.87
2018-07-04T16:37:14.940Z,2.15
2018-07-04T16:39:54.606Z,1.98
2018-07-04T16:42:34.025Z,2.30
2018-07-04T16:45:13.696Z,2.30
2018-07-04T16:47:53.290Z,2.12
2018-07-04T16:50:32.918Z,1.87
2018-07-04T16:53:12.404Z,2.20
2018-07-04T16:55:52.460Z,2.10
2018-07-04T16:58:32.046Z,2.20
2018-07-04T17:01:11.686Z,2.37
2018-07-04T17:03:51.374Z,2.27
2018-07-04T17:06:30.854Z,2.10
2018-07-04T17:09:10.513Z,2.02
2018-07-04T17:11:50.137Z,2.10
2018-07-04T17:14:29.858Z,2.30
2018-07-04T17:17:10.157Z,2.02
2018-07-04T17:19:49.950Z,1.80
2018-07-04T17:22:29.539Z,2.10
2018-07-04T17:25:09.131Z,1.80
2018-07-04T17:27:49.037Z,2.12
2018-07-04T17:30:28.606Z,2.35
2018-07-04T17:33:08.269Z,2.10
2018-07-04T17:35:48.035Z,2.25
2018-07-04T17:38:27.633Z,2.10
2018-07-04T17:41:07.254Z,2.20
2018-07-04T17:43:46.788Z,2.12
2018-07-04T17:46:26.458Z,2.35
2018-07-04T17:49:06.097Z,1.92
2018-07-04T17:51:45.734Z,1.80
2018-07-04T17:54:25.296Z,2.35
2018-07-04T17:57:04.918Z,2.20
2018-07-04T17:59:44.824Z,2.00
2018-07-04T18:02:24.268Z,2.00
2018-07-04T18:05:03.872Z,2.15
2018-07-04T18:07:43.577Z,2.35
2018-07-04T18:10:23.205Z,2.22
2018-07-04T18:13:02.786Z,2.27
2018-07-04T18:15:42.345Z,2.02
2018-07-04T18:18:22.302Z,2.02
2018-07-04T18:21:06.142Z,1.95
2018-07-04T18:23:45.740Z,2.10
2018-07-04T18:26:25.634Z,2.15
2018-07-04T18:29:05.113Z,2.33
2018-07-04T18:31:44.764Z,2.02
2018-07-04T18:34:24.566Z,2.98
2018-07-04T18:37:04.269Z,2.50
2018-07-04T18:39:43.917Z,2.40
2018-07-04T18:42:23.500Z,1.90
2018-07-04T18:45:03.119Z,2.20
2018-07-04T18:47:42.739Z,2.30
2018-07-04T18:50:22.152Z,2.72
2018-07-04T18:53:01.867Z,3.20
2018-07-04T18:55:41.496Z,2.80
2018-07-04T18:58:21.215Z,2.45
2018-07-04T19:01:00.835Z,2.77
2018-07-04T19:03:40.464Z,2.77
2018-07-04T19:06:20.035Z,2.20
2018-07-04T19:08:59.646Z,2.47
2018-07-04T19:11:39.286Z,2.37
2018-07-04T19:14:18.971Z,2.45
2018-07-04T19:16:58.609Z,2.50
2018-07-04T19:19:38.283Z,2.75
2018-07-04T19:22:17.909Z,2.60
2018-07-04T19:24:57.568Z,2.60
2018-07-04T19:27:37.089Z,2.70
2018-07-04T19:30:16.724Z,2.62
2018-07-04T19:32:56.161Z,2.10
2018-07-04T19:35:36.680Z,2.65
2018-07-04T19:38:16.175Z,2.40
2018-07-04T19:40:56.142Z,2.50
2018-07-04T19:43:36.039Z,2.60
2018-07-04T19:46:16.091Z,2.70
2018-07-04T19:48:56.039Z,2.90
2018-07-04T19:51:35.838Z,2.90
2018-07-04T19:54:15.851Z,3.22
2018-07-04T19:56:55.388Z,3.00
2018-07-04T19:59:35.221Z,3.65
2018-07-04T20:02:14.829Z,3.87
2018-07-04T20:04:54.947Z,3.52
2018-07-04T20:07:36.028Z,3.67
2018-07-04T20:10:15.555Z,3.33
2018-07-04T20:12:55.166Z,3.58
2018-07-04T20:15:34.988Z,3.33
2018-07-04T20:18:14.599Z,3.27
2018-07-04T20:20:54.245Z,3.20
2018-07-04T20:23:33.853Z,3.25
2018-07-04T20:26:13.469Z,3.60
2018-07-04T20:28:53.219Z,3.20
2018-07-04T20:31:32.883Z,4.00
2018-07-04T20:34:12.498Z,3.73
2018-07-04T20:36:54.141Z,3.87
2018-07-04T20:39:33.671Z,4.53
2018-07-04T20:42:13.832Z,3.37
2018-07-04T20:44:53.802Z,3.27
2018-07-04T20:47:33.448Z,3.33
2018-07-04T20:50:12.993Z,3.40
2018-07-04T20:52:52.676Z,3.60
2018-07-04T20:55:32.698Z,4.03
2018-07-04T20:58:12.411Z,4.40
2018-07-04T21:00:52.454Z,4.17
2018-07-04T21:03:32.340Z,3.80
2018-07-04T21:06:12.302Z,4.10
2018-07-04T21:08:51.865Z,4.77
2018-07-04T21:11:32.405Z,3.60
2018-07-04T21:14:12.077Z,4.00
2018-07-04T21:16:51.960Z,3.57
2018-07-04T21:22:42.451Z,3.80
2018-07-04T21:25:22.358Z,3.90
2018-07-04T21:28:01.866Z,4.40
2018-07-04T21:30:41.467Z,4.30
2018-07-04T21:33:21.092Z,4.00
2018-07-04T21:36:00.682Z,4.00
2018-07-04T21:38:40.372Z,4.10
2018-07-04T21:41:19.982Z,3.87
2018-07-04T21:43:59.710Z,4.37
2018-07-04T21:46:42.171Z,4.40
2018-07-04T21:49:21.752Z,4.30
2018-07-04T21:52:01.390Z,4.10
2018-07-04T21:54:34.621Z,4.57
2018-07-04T21:57:14.166Z,4.53
2018-07-04T21:59:53.813Z,5.30
2018-07-04T22:02:33.455Z,5.10
2018-07-04T22:05:13.023Z,4.93
2018-07-04T22:07:52.751Z,4.87
2018-07-04T22:10:32.929Z,4.40
2018-07-04T22:13:12.676Z,4.40
2018-07-04T22:15:52.213Z,4.30
2018-07-04T22:18:31.958Z,4.60
2018-07-04T22:21:11.587Z,4.63
2018-07-04T22:23:51.190Z,5.33
2018-07-04T22:26:30.854Z,5.23
2018-07-04T22:29:10.478Z,5.57
2018-07-04T22:31:50.081Z,5.43
2018-07-04T22:34:29.802Z,4.77
2018-07-04T22:37:09.429Z,4.87
2018-07-04T22:39:49.107Z,4.70
2018-07-04T22:42:28.742Z,4.53
2018-07-04T22:45:08.598Z,4.97
2018-07-04T22:47:48.248Z,4.57
2018-07-04T22:50:27.958Z,4.53
2018-07-04T22:53:07.631Z,4.67
2018-07-04T22:55:47.186Z,4.50
2018-07-04T22:58:26.900Z,4.50
2018-07-04T23:01:06.487Z,4.50
2018-07-04T23:03:46.126Z,4.60
2018-07-04T23:06:25.614Z,4.40
2018-07-04T23:09:06.037Z,4.73
2018-07-04T23:11:45.550Z,4.30
2018-07-04T23:14:25.219Z,4.60
2018-07-04T23:17:04.982Z,4.23
2018-07-04T23:19:44.770Z,4.47
2018-07-04T23:22:24.326Z,4.00
2018-07-04T23:25:04.304Z,3.57
2018-07-04T23:27:43.889Z,3.77
2018-07-04T23:30:23.495Z,3.20
2018-07-04T23:33:03.260Z,3.20
2018-07-04T23:35:42.884Z,3.30
2018-07-04T23:38:22.495Z,3.10
2018-07-04T23:41:02.150Z,3.90
2018-07-04T23:43:41.767Z,3.37
2018-07-04T23:46:21.733Z,3.87
2018-07-04T23:49:01.373Z,3.27
2018-07-04T23:51:40.972Z,3.10
2018-07-04T23:54:20.824Z,3.40
2018-07-04T23:57:00.457Z,3.17
2018-07-04T23:59:40.124Z,3.30
